Abbotsford, Wisconsin
Current Conditions -  °F | °C
As of 4:15 PM on Friday 24 Oct 2014 (Local Time) from KMDZ Reporting Station
Overcast Overcast  
Wind Chill: 56°   Ceiling: 2300
Heat Index: 56°   Visibility: 10mi
Dew Point: 49°   Wind: 5mph
Humidity: 77%   Direction: 190°S
Pressure: 29.88"   Gusts: NA
Location:  44.95°N, 90.32°W
Report Text: KMDZ 242115Z AUTO 19004KT 10SM OVC023 13/09 A2988 RMK AO2 T01320093
Loading
Personal Weather Stations






























Interactive Weather Map New forecast layout! Learn more

10-Day Weather Forecast

Advertisements
Track Severe Weather on mobile